AXM5323 WBKK-WMKP
Flight info
| Callsign | AXM5323 |
|---|---|
| Flight time | 2h 22m |
| Altitude | 36000 |
| Route | ADLEX1F ADLEX Y446 PADLO Y447 OLKIT M758 OPULA DCT UPVUN M758 IDSEL DCT VPK G582 VBA DCT SUKAT A457 TEPUS GORVU1F |
| Aircraft | A320/M-SDE3FGHIRWY/LB1 |
Departure
| Time | 2026-04-28 08:35 |
|---|---|
| Airport | Kota Kinabalu International Airport (WBKK) |
Arrival
| Time | 2026-04-28 10:57 |
|---|---|
| Airport | Penang International Airport (WMKP) |
| Time | Latitude | Longitude | Altitude | Speed | Heading |
|---|---|---|---|---|---|
| 2026-04-28 08:15 | 5.92396 | 116.04959 | 29 ft | 0 kts | 63° |
| 2026-04-28 08:26 | 5.92394 | 116.04956 | 29 ft | 2 kts | 63° |
| 2026-04-28 08:27 | 5.92387 | 116.04942 | 29 ft | 2 kts | 63° |
| 2026-04-28 08:27 | 5.92380 | 116.04927 | 29 ft | 2 kts | 63° |
| 2026-04-28 08:27 | 5.92373 | 116.04912 | 29 ft | 2 kts | 64° |
| 2026-04-28 08:27 | 5.92365 | 116.04897 | 29 ft | 2 kts | 64° |
| 2026-04-28 08:28 | 5.92357 | 116.04882 | 29 ft | 2 kts | 45° |
| 2026-04-28 08:28 | 5.92345 | 116.04872 | 29 ft | 2 kts | 27° |
| 2026-04-28 08:28 | 5.92329 | 116.04866 | 29 ft | 2 kts | 8° |
| 2026-04-28 08:28 | 5.92314 | 116.04865 | 29 ft | 2 kts | 349° |
| 2026-04-28 08:29 | 5.92309 | 116.04865 | 29 ft | 0 kts | 341° |
| 2026-04-28 08:30 | 5.92333 | 116.04856 | 29 ft | 6 kts | 339° |
| 2026-04-28 08:30 | 5.92390 | 116.04830 | 29 ft | 11 kts | 320° |
| 2026-04-28 08:30 | 5.92409 | 116.04768 | 29 ft | 9 kts | 256° |
| 2026-04-28 08:31 | 5.92370 | 116.04731 | 29 ft | 8 kts | 204° |
| 2026-04-28 08:31 | 5.92309 | 116.04706 | 29 ft | 10 kts | 203° |
| 2026-04-28 08:31 | 5.92237 | 116.04675 | 29 ft | 14 kts | 202° |
| 2026-04-28 08:31 | 5.92152 | 116.04640 | 29 ft | 12 kts | 202° |
| 2026-04-28 08:32 | 5.92065 | 116.04603 | 29 ft | 16 kts | 203° |
| 2026-04-28 08:32 | 5.91956 | 116.04557 | 29 ft | 17 kts | 202° |
| 2026-04-28 08:32 | 5.91850 | 116.04513 | 29 ft | 15 kts | 203° |
| 2026-04-28 08:32 | 5.91785 | 116.04451 | 29 ft | 13 kts | 268° |
| 2026-04-28 08:33 | 5.91811 | 116.04375 | 29 ft | 11 kts | 294° |
| 2026-04-28 08:33 | 5.91861 | 116.04336 | 29 ft | 8 kts | 347° |
| 2026-04-28 08:33 | 5.91895 | 116.04343 | 29 ft | 0 kts | 24° |
| 2026-04-28 08:34 | 5.91919 | 116.04354 | 29 ft | 22 kts | 24° |
| 2026-04-28 08:34 | 5.92295 | 116.04513 | 29 ft | 92 kts | 22° |
| 2026-04-28 08:35 | 5.93059 | 116.04836 | 29 ft | 144 kts | 23° |
| 2026-04-28 08:35 | 5.94112 | 116.05282 | 100 ft | 179 kts | 24° |
| 2026-04-28 08:35 | 5.95277 | 116.05807 | 588 ft | 191 kts | 26° |
| 2026-04-28 08:35 | 5.96502 | 116.06305 | 1309 ft | 191 kts | 20° |
| 2026-04-28 08:36 | 5.97801 | 116.06691 | 1663 ft | 208 kts | 4° |
| 2026-04-28 08:36 | 5.99227 | 116.06255 | 1913 ft | 232 kts | 321° |
| 2026-04-28 08:36 | 6.00290 | 116.04906 | 2245 ft | 257 kts | 300° |
| 2026-04-28 08:36 | 6.01084 | 116.03270 | 2828 ft | 269 kts | 295° |
| 2026-04-28 08:37 | 6.01841 | 116.01505 | 3587 ft | 273 kts | 294° |
| 2026-04-28 08:37 | 6.02611 | 115.99768 | 4333 ft | 277 kts | 295° |
| 2026-04-28 08:37 | 6.03442 | 115.98016 | 5080 ft | 281 kts | 297° |
| 2026-04-28 08:37 | 6.04238 | 115.96177 | 5788 ft | 286 kts | 285° |
| 2026-04-28 08:38 | 6.04495 | 115.94188 | 6472 ft | 290 kts | 267° |
| 2026-04-28 08:38 | 6.04182 | 115.92183 | 7150 ft | 293 kts | 256° |
| 2026-04-28 08:38 | 6.03747 | 115.90202 | 7860 ft | 296 kts | 257° |
| 2026-04-28 08:38 | 6.03301 | 115.88149 | 8586 ft | 299 kts | 257° |
| 2026-04-28 08:39 | 6.02863 | 115.86128 | 9279 ft | 302 kts | 257° |
| 2026-04-28 08:39 | 6.02411 | 115.84033 | 9962 ft | 305 kts | 257° |
| 2026-04-28 08:39 | 6.01963 | 115.81941 | 10316 ft | 320 kts | 257° |
| 2026-04-28 08:39 | 6.01477 | 115.79675 | 10441 ft | 342 kts | 257° |
| 2026-04-28 08:40 | 6.00965 | 115.77300 | 10808 ft | 354 kts | 257° |
| 2026-04-28 08:40 | 6.00448 | 115.74859 | 11367 ft | 358 kts | 258° |
| 2026-04-28 08:40 | 5.99996 | 115.72392 | 11960 ft | 362 kts | 260° |
| 2026-04-28 08:40 | 5.99594 | 115.69881 | 12534 ft | 365 kts | 261° |
| 2026-04-28 08:41 | 5.99215 | 115.67347 | 13122 ft | 368 kts | 261° |
| 2026-04-28 08:41 | 5.98836 | 115.64793 | 13686 ft | 371 kts | 261° |
| 2026-04-28 08:41 | 5.98447 | 115.62216 | 14185 ft | 374 kts | 261° |
| 2026-04-28 08:41 | 5.98046 | 115.59625 | 14675 ft | 377 kts | 261° |
| 2026-04-28 08:42 | 5.97633 | 115.57011 | 15163 ft | 381 kts | 261° |
| 2026-04-28 08:42 | 5.97210 | 115.54376 | 15648 ft | 384 kts | 261° |
| 2026-04-28 08:42 | 5.96781 | 115.51719 | 16130 ft | 387 kts | 261° |
| 2026-04-28 08:42 | 5.96348 | 115.49037 | 16598 ft | 390 kts | 261° |
| 2026-04-28 08:43 | 5.95913 | 115.46331 | 17065 ft | 394 kts | 261° |
| 2026-04-28 08:43 | 5.95478 | 115.43607 | 17528 ft | 397 kts | 261° |
| 2026-04-28 08:43 | 5.95038 | 115.40860 | 17998 ft | 400 kts | 261° |
| 2026-04-28 08:43 | 5.94593 | 115.38093 | 18393 ft | 403 kts | 261° |
| 2026-04-28 08:44 | 5.94144 | 115.35304 | 18783 ft | 406 kts | 261° |
| 2026-04-28 08:44 | 5.93691 | 115.32499 | 19186 ft | 408 kts | 261° |
| 2026-04-28 08:44 | 5.93237 | 115.29682 | 19580 ft | 411 kts | 261° |
| 2026-04-28 08:44 | 5.92782 | 115.26840 | 19968 ft | 413 kts | 261° |
| 2026-04-28 08:45 | 5.92577 | 115.23958 | 20343 ft | 415 kts | 271° |
| 2026-04-28 08:45 | 5.92674 | 115.21062 | 20708 ft | 418 kts | 272° |
| 2026-04-28 08:45 | 5.92776 | 115.18123 | 21084 ft | 420 kts | 272° |
| 2026-04-28 08:45 | 5.92877 | 115.15181 | 21453 ft | 423 kts | 272° |
| 2026-04-28 08:46 | 5.92975 | 115.12228 | 21823 ft | 425 kts | 272° |
| 2026-04-28 08:46 | 5.93074 | 115.09246 | 22182 ft | 428 kts | 272° |
| 2026-04-28 08:46 | 5.93172 | 115.06259 | 22539 ft | 430 kts | 272° |
| 2026-04-28 08:46 | 5.93269 | 115.03253 | 22884 ft | 433 kts | 272° |
| 2026-04-28 08:47 | 5.93369 | 115.00222 | 23230 ft | 435 kts | 272° |
| 2026-04-28 08:47 | 5.93471 | 114.97172 | 23546 ft | 437 kts | 272° |
| 2026-04-28 08:47 | 5.93571 | 114.94108 | 23830 ft | 439 kts | 271° |
| 2026-04-28 08:47 | 5.93668 | 114.91040 | 24112 ft | 441 kts | 271° |
| 2026-04-28 08:48 | 5.93767 | 114.87947 | 24406 ft | 443 kts | 271° |
| 2026-04-28 08:48 | 5.93865 | 114.84856 | 24694 ft | 445 kts | 271° |
| 2026-04-28 08:48 | 5.93964 | 114.81748 | 24979 ft | 447 kts | 271° |
| 2026-04-28 08:48 | 5.94066 | 114.78612 | 25267 ft | 449 kts | 271° |
| 2026-04-28 08:49 | 5.94166 | 114.75480 | 25548 ft | 450 kts | 271° |
| 2026-04-28 08:49 | 5.94265 | 114.72326 | 25826 ft | 452 kts | 271° |
| 2026-04-28 08:49 | 5.94364 | 114.69168 | 26095 ft | 454 kts | 271° |
| 2026-04-28 08:49 | 5.94463 | 114.65944 | 26370 ft | 456 kts | 271° |
| 2026-04-28 08:50 | 5.94561 | 114.62803 | 26631 ft | 457 kts | 271° |
| 2026-04-28 08:50 | 5.94662 | 114.59606 | 26891 ft | 459 kts | 271° |
| 2026-04-28 08:50 | 5.94765 | 114.56401 | 27153 ft | 461 kts | 271° |
| 2026-04-28 08:50 | 5.94870 | 114.53179 | 27407 ft | 462 kts | 271° |
| 2026-04-28 08:51 | 5.94976 | 114.49936 | 27671 ft | 464 kts | 271° |
| 2026-04-28 08:51 | 5.95081 | 114.46689 | 27931 ft | 466 kts | 271° |
| 2026-04-28 08:51 | 5.95183 | 114.43431 | 28188 ft | 468 kts | 271° |
| 2026-04-28 08:51 | 5.95284 | 114.40162 | 28441 ft | 469 kts | 271° |
| 2026-04-28 08:52 | 5.95386 | 114.36885 | 28680 ft | 471 kts | 271° |
| 2026-04-28 08:52 | 5.95489 | 114.33594 | 28930 ft | 472 kts | 270° |
| 2026-04-28 08:52 | 5.95591 | 114.30285 | 29163 ft | 474 kts | 270° |
| 2026-04-28 08:52 | 5.95691 | 114.26970 | 29393 ft | 476 kts | 270° |
| 2026-04-28 08:53 | 5.95795 | 114.23646 | 29616 ft | 477 kts | 270° |
| 2026-04-28 08:53 | 5.95899 | 114.20307 | 29835 ft | 479 kts | 270° |
| 2026-04-28 08:53 | 5.96003 | 114.16957 | 30025 ft | 480 kts | 270° |
| 2026-04-28 08:53 | 5.96108 | 114.13604 | 30220 ft | 481 kts | 270° |
| 2026-04-28 08:54 | 5.96211 | 114.10237 | 30414 ft | 482 kts | 270° |
| 2026-04-28 08:54 | 5.96287 | 114.06871 | 30644 ft | 482 kts | 267° |
| 2026-04-28 08:54 | 5.95958 | 114.03540 | 30935 ft | 478 kts | 258° |
| 2026-04-28 08:54 | 5.95125 | 114.00324 | 31220 ft | 474 kts | 249° |
| 2026-04-28 08:55 | 5.93817 | 113.97301 | 31502 ft | 471 kts | 241° |
| 2026-04-28 08:55 | 5.92305 | 113.94384 | 31783 ft | 470 kts | 241° |
| 2026-04-28 08:55 | 5.90798 | 113.91480 | 32073 ft | 469 kts | 241° |
| 2026-04-28 08:55 | 5.89294 | 113.88580 | 32363 ft | 467 kts | 241° |
| 2026-04-28 08:56 | 5.87797 | 113.85687 | 32651 ft | 466 kts | 241° |
| 2026-04-28 08:56 | 5.86304 | 113.82804 | 32938 ft | 465 kts | 241° |
| 2026-04-28 08:56 | 5.84813 | 113.79919 | 33218 ft | 464 kts | 242° |
| 2026-04-28 08:56 | 5.83320 | 113.77035 | 33365 ft | 467 kts | 241° |
| 2026-04-28 08:57 | 5.81828 | 113.74151 | 33684 ft | 465 kts | 242° |
| 2026-04-28 08:57 | 5.80339 | 113.71273 | 33798 ft | 462 kts | 242° |
| 2026-04-28 08:57 | 5.78867 | 113.68435 | 33830 ft | 457 kts | 242° |
| 2026-04-28 08:58 | 5.76412 | 113.63710 | 33813 ft | 454 kts | 242° |
| 2026-04-28 08:58 | 5.73013 | 113.57159 | 33819 ft | 459 kts | 242° |
| 2026-04-28 08:59 | 5.70531 | 113.52383 | 33830 ft | 469 kts | 242° |
| 2026-04-28 08:59 | 5.67485 | 113.46505 | 33812 ft | 479 kts | 242° |
| 2026-04-28 09:00 | 5.64375 | 113.40512 | 33824 ft | 488 kts | 242° |
| 2026-04-28 09:00 | 5.61251 | 113.34498 | 33819 ft | 481 kts | 242° |
| 2026-04-28 09:01 | 5.58170 | 113.28561 | 33828 ft | 479 kts | 242° |
| 2026-04-28 09:01 | 5.55086 | 113.22635 | 33817 ft | 478 kts | 242° |
| 2026-04-28 09:02 | 5.52002 | 113.16713 | 33822 ft | 478 kts | 242° |
| 2026-04-28 09:02 | 5.48927 | 113.10797 | 33819 ft | 478 kts | 242° |
| 2026-04-28 09:03 | 5.45863 | 113.04882 | 33817 ft | 478 kts | 242° |
| 2026-04-28 09:03 | 5.42776 | 112.98950 | 33815 ft | 479 kts | 242° |
| 2026-04-28 09:04 | 5.39687 | 112.93025 | 33830 ft | 479 kts | 242° |
| 2026-04-28 09:04 | 5.36598 | 112.87095 | 33819 ft | 480 kts | 242° |
| 2026-04-28 09:05 | 5.33517 | 112.81148 | 33820 ft | 480 kts | 242° |
| 2026-04-28 09:05 | 5.30435 | 112.75208 | 33833 ft | 480 kts | 242° |
| 2026-04-28 09:06 | 5.27341 | 112.69281 | 33827 ft | 480 kts | 242° |
| 2026-04-28 09:06 | 5.24245 | 112.63348 | 33829 ft | 480 kts | 242° |
| 2026-04-28 09:07 | 5.21154 | 112.57422 | 33826 ft | 480 kts | 242° |
| 2026-04-28 09:07 | 5.18063 | 112.51495 | 33827 ft | 479 kts | 242° |
| 2026-04-28 09:08 | 5.14968 | 112.45565 | 33832 ft | 479 kts | 242° |
| 2026-04-28 09:08 | 5.11876 | 112.39639 | 33831 ft | 479 kts | 242° |
| 2026-04-28 09:09 | 5.08810 | 112.33754 | 33820 ft | 480 kts | 242° |
| 2026-04-28 09:09 | 5.05718 | 112.27823 | 33824 ft | 480 kts | 242° |
| 2026-04-28 09:10 | 5.02624 | 112.21895 | 33829 ft | 480 kts | 242° |
| 2026-04-28 09:10 | 4.99526 | 112.15966 | 33829 ft | 480 kts | 242° |
| 2026-04-28 09:11 | 4.96431 | 112.10037 | 33832 ft | 480 kts | 242° |
| 2026-04-28 09:11 | 4.93336 | 112.04115 | 33836 ft | 479 kts | 242° |
| 2026-04-28 09:12 | 4.90245 | 111.98196 | 33837 ft | 479 kts | 241° |
| 2026-04-28 09:12 | 4.87158 | 111.92290 | 33844 ft | 478 kts | 241° |
| 2026-04-28 09:13 | 4.84121 | 111.86367 | 33842 ft | 478 kts | 245° |
| 2026-04-28 09:13 | 4.82207 | 111.79985 | 33845 ft | 478 kts | 254° |
| 2026-04-28 09:14 | 4.80573 | 111.73528 | 33845 ft | 477 kts | 254° |
| 2026-04-28 09:14 | 4.78935 | 111.67087 | 33844 ft | 477 kts | 254° |
| 2026-04-28 09:15 | 4.77296 | 111.60651 | 33847 ft | 476 kts | 254° |
| 2026-04-28 09:15 | 4.75668 | 111.54220 | 33846 ft | 475 kts | 255° |
| 2026-04-28 09:16 | 4.74045 | 111.47802 | 33843 ft | 475 kts | 255° |
| 2026-04-28 09:16 | 4.72415 | 111.41390 | 33844 ft | 474 kts | 255° |
| 2026-04-28 09:17 | 4.70788 | 111.34986 | 33842 ft | 474 kts | 255° |
| 2026-04-28 09:17 | 4.69156 | 111.28570 | 33817 ft | 475 kts | 255° |
| 2026-04-28 09:18 | 4.67524 | 111.22150 | 33815 ft | 476 kts | 255° |
| 2026-04-28 09:18 | 4.65882 | 111.15717 | 33812 ft | 477 kts | 255° |
| 2026-04-28 09:19 | 4.64252 | 111.09309 | 33805 ft | 478 kts | 255° |
| 2026-04-28 09:19 | 4.62599 | 111.02834 | 33810 ft | 480 kts | 255° |
| 2026-04-28 09:20 | 4.60936 | 110.96355 | 33814 ft | 481 kts | 255° |
| 2026-04-28 09:20 | 4.59279 | 110.89859 | 33812 ft | 481 kts | 255° |
| 2026-04-28 09:21 | 4.57625 | 110.83353 | 33811 ft | 482 kts | 255° |
| 2026-04-28 09:21 | 4.55971 | 110.76838 | 33820 ft | 483 kts | 255° |
| 2026-04-28 09:22 | 4.54312 | 110.70317 | 33819 ft | 483 kts | 255° |
| 2026-04-28 09:22 | 4.52641 | 110.63786 | 33824 ft | 484 kts | 255° |
| 2026-04-28 09:23 | 4.50966 | 110.57256 | 33821 ft | 484 kts | 255° |
| 2026-04-28 09:23 | 4.49288 | 110.50714 | 33826 ft | 485 kts | 255° |
| 2026-04-28 09:24 | 4.47621 | 110.44184 | 33829 ft | 485 kts | 255° |
| 2026-04-28 09:24 | 4.45946 | 110.37626 | 33823 ft | 485 kts | 255° |
| 2026-04-28 09:25 | 4.44271 | 110.31070 | 33824 ft | 486 kts | 255° |
| 2026-04-28 09:25 | 4.42590 | 110.24519 | 33823 ft | 486 kts | 255° |
| 2026-04-28 09:26 | 4.40911 | 110.17968 | 33830 ft | 486 kts | 255° |
| 2026-04-28 09:26 | 4.39234 | 110.11407 | 33827 ft | 486 kts | 255° |
| 2026-04-28 09:27 | 4.36711 | 110.01570 | 33836 ft | 486 kts | 255° |
| 2026-04-28 09:27 | 4.35034 | 109.95009 | 33830 ft | 486 kts | 255° |
| 2026-04-28 09:28 | 4.33351 | 109.88454 | 33835 ft | 486 kts | 255° |
| 2026-04-28 09:28 | 4.31659 | 109.81896 | 33830 ft | 486 kts | 255° |
| 2026-04-28 09:29 | 4.29975 | 109.75340 | 33832 ft | 486 kts | 255° |
| 2026-04-28 09:29 | 4.28289 | 109.68776 | 33831 ft | 486 kts | 255° |
| 2026-04-28 09:30 | 4.26617 | 109.62256 | 33837 ft | 487 kts | 255° |
| 2026-04-28 09:30 | 4.24932 | 109.55686 | 33832 ft | 487 kts | 255° |
| 2026-04-28 09:31 | 4.23207 | 109.49078 | 33829 ft | 487 kts | 255° |
| 2026-04-28 09:31 | 4.21483 | 109.42516 | 33829 ft | 487 kts | 255° |
| 2026-04-28 09:32 | 4.19765 | 109.35954 | 33835 ft | 487 kts | 255° |
| 2026-04-28 09:32 | 4.18047 | 109.29383 | 33837 ft | 488 kts | 255° |
| 2026-04-28 09:33 | 4.16336 | 109.22810 | 33835 ft | 488 kts | 255° |
| 2026-04-28 09:33 | 4.14617 | 109.16239 | 33833 ft | 488 kts | 255° |
| 2026-04-28 09:34 | 4.12904 | 109.09703 | 33834 ft | 488 kts | 255° |
| 2026-04-28 09:34 | 4.11165 | 109.03083 | 33836 ft | 488 kts | 255° |
| 2026-04-28 09:35 | 4.09453 | 108.96547 | 33840 ft | 488 kts | 255° |
| 2026-04-28 09:35 | 4.07733 | 108.89970 | 33834 ft | 489 kts | 255° |
| 2026-04-28 09:36 | 4.06007 | 108.83385 | 33837 ft | 489 kts | 255° |
| 2026-04-28 09:36 | 4.04288 | 108.76802 | 33843 ft | 489 kts | 255° |
| 2026-04-28 09:37 | 4.02562 | 108.70216 | 33836 ft | 489 kts | 255° |
| 2026-04-28 09:37 | 4.00836 | 108.63633 | 33839 ft | 489 kts | 255° |
| 2026-04-28 09:38 | 3.99128 | 108.57042 | 33842 ft | 489 kts | 255° |
| 2026-04-28 09:38 | 3.97416 | 108.50456 | 33847 ft | 488 kts | 255° |
| 2026-04-28 09:39 | 3.95700 | 108.43877 | 33849 ft | 488 kts | 255° |
| 2026-04-28 09:39 | 3.93990 | 108.37310 | 33849 ft | 488 kts | 255° |
| 2026-04-28 09:40 | 3.92274 | 108.30734 | 33851 ft | 487 kts | 255° |
| 2026-04-28 09:40 | 3.90559 | 108.24150 | 33852 ft | 487 kts | 255° |
| 2026-04-28 09:41 | 3.88855 | 108.17635 | 33853 ft | 487 kts | 254° |
| 2026-04-28 09:41 | 3.87147 | 108.11081 | 33853 ft | 486 kts | 255° |
| 2026-04-28 09:42 | 3.85444 | 108.04531 | 33853 ft | 486 kts | 254° |
| 2026-04-28 09:42 | 3.83733 | 107.97997 | 33855 ft | 485 kts | 254° |
| 2026-04-28 09:43 | 3.82027 | 107.91470 | 33856 ft | 485 kts | 254° |
| 2026-04-28 09:43 | 3.80316 | 107.84939 | 33853 ft | 484 kts | 254° |
| 2026-04-28 09:44 | 3.78610 | 107.78427 | 33857 ft | 484 kts | 254° |
| 2026-04-28 09:44 | 3.77198 | 107.73012 | 33855 ft | 483 kts | 254° |
| 2026-04-28 09:45 | 3.75489 | 107.66464 | 33857 ft | 482 kts | 254° |
| 2026-04-28 09:45 | 3.73786 | 107.59972 | 33854 ft | 482 kts | 254° |
| 2026-04-28 09:46 | 3.72088 | 107.53482 | 33847 ft | 482 kts | 254° |
| 2026-04-28 09:46 | 3.70392 | 107.46976 | 33838 ft | 483 kts | 254° |
| 2026-04-28 09:47 | 3.68695 | 107.40511 | 33827 ft | 484 kts | 254° |
| 2026-04-28 09:47 | 3.66986 | 107.33985 | 33817 ft | 485 kts | 254° |
| 2026-04-28 09:48 | 3.65276 | 107.27444 | 33817 ft | 487 kts | 254° |
| 2026-04-28 09:48 | 3.63549 | 107.20882 | 33821 ft | 488 kts | 255° |
| 2026-04-28 09:49 | 3.61827 | 107.14315 | 33831 ft | 488 kts | 255° |
| 2026-04-28 09:49 | 3.60124 | 107.07802 | 33834 ft | 488 kts | 255° |
| 2026-04-28 09:50 | 3.58402 | 107.01241 | 33842 ft | 487 kts | 255° |
| 2026-04-28 09:50 | 3.56687 | 106.94685 | 33849 ft | 487 kts | 256° |
| 2026-04-28 09:51 | 3.55916 | 106.87978 | 33854 ft | 486 kts | 267° |
| 2026-04-28 09:51 | 3.55576 | 106.81229 | 33854 ft | 485 kts | 267° |
| 2026-04-28 09:52 | 3.55217 | 106.74495 | 33852 ft | 485 kts | 267° |
| 2026-04-28 09:52 | 3.54859 | 106.67755 | 33853 ft | 484 kts | 267° |
| 2026-04-28 09:53 | 3.54509 | 106.61025 | 33849 ft | 484 kts | 267° |
| 2026-04-28 09:53 | 3.54165 | 106.54299 | 33847 ft | 484 kts | 267° |
| 2026-04-28 09:54 | 3.53828 | 106.47569 | 33844 ft | 484 kts | 267° |
| 2026-04-28 09:54 | 3.53479 | 106.40853 | 33844 ft | 484 kts | 267° |
| 2026-04-28 09:55 | 3.53122 | 106.34134 | 33844 ft | 484 kts | 267° |
| 2026-04-28 09:55 | 3.52777 | 106.27409 | 33843 ft | 484 kts | 267° |
| 2026-04-28 09:56 | 3.52438 | 106.20685 | 33843 ft | 483 kts | 267° |
| 2026-04-28 09:56 | 3.52096 | 106.13963 | 33843 ft | 483 kts | 267° |
| 2026-04-28 09:57 | 3.51753 | 106.07248 | 33839 ft | 483 kts | 267° |
| 2026-04-28 09:57 | 3.51411 | 106.00530 | 33840 ft | 483 kts | 267° |
| 2026-04-28 09:58 | 3.51070 | 105.93807 | 33838 ft | 483 kts | 267° |
| 2026-04-28 09:58 | 3.50729 | 105.87089 | 33837 ft | 483 kts | 267° |
| 2026-04-28 09:59 | 3.50386 | 105.80373 | 33840 ft | 483 kts | 267° |
| 2026-04-28 09:59 | 3.50044 | 105.73654 | 33839 ft | 483 kts | 267° |
| 2026-04-28 10:00 | 3.49707 | 105.66934 | 33840 ft | 483 kts | 267° |
| 2026-04-28 10:00 | 3.49375 | 105.60215 | 33839 ft | 483 kts | 267° |
| 2026-04-28 10:01 | 3.49029 | 105.53497 | 33837 ft | 484 kts | 267° |
| 2026-04-28 10:01 | 3.48686 | 105.46774 | 33837 ft | 484 kts | 267° |
| 2026-04-28 10:02 | 3.48347 | 105.40050 | 33838 ft | 484 kts | 267° |
| 2026-04-28 10:02 | 3.48013 | 105.33327 | 33835 ft | 484 kts | 267° |
| 2026-04-28 10:03 | 3.47678 | 105.26597 | 33831 ft | 484 kts | 267° |
| 2026-04-28 10:03 | 3.47333 | 105.19873 | 33835 ft | 484 kts | 267° |
| 2026-04-28 10:04 | 3.46986 | 105.13146 | 33838 ft | 484 kts | 267° |
| 2026-04-28 10:04 | 3.46646 | 105.06456 | 33837 ft | 484 kts | 267° |
| 2026-04-28 10:05 | 3.46309 | 104.99728 | 33837 ft | 484 kts | 267° |
| 2026-04-28 10:05 | 3.45973 | 104.92994 | 33837 ft | 484 kts | 267° |
| 2026-04-28 10:06 | 3.45627 | 104.86262 | 33837 ft | 484 kts | 267° |
| 2026-04-28 10:06 | 3.45269 | 104.79534 | 33838 ft | 484 kts | 267° |
| 2026-04-28 10:07 | 3.44922 | 104.72799 | 33837 ft | 484 kts | 267° |
| 2026-04-28 10:07 | 3.44583 | 104.66065 | 33838 ft | 484 kts | 267° |
| 2026-04-28 10:08 | 3.44237 | 104.59336 | 33841 ft | 484 kts | 267° |
| 2026-04-28 10:08 | 3.43884 | 104.52599 | 33840 ft | 484 kts | 267° |
| 2026-04-28 10:09 | 3.43540 | 104.45868 | 33841 ft | 484 kts | 267° |
| 2026-04-28 10:09 | 3.43206 | 104.39131 | 33838 ft | 485 kts | 267° |
| 2026-04-28 10:10 | 3.42874 | 104.32401 | 33839 ft | 485 kts | 267° |
| 2026-04-28 10:10 | 3.42535 | 104.25663 | 33836 ft | 485 kts | 267° |
| 2026-04-28 10:11 | 3.42189 | 104.18920 | 33838 ft | 485 kts | 267° |
| 2026-04-28 10:11 | 3.41839 | 104.12175 | 33835 ft | 485 kts | 267° |
| 2026-04-28 10:12 | 3.41506 | 104.05428 | 33834 ft | 486 kts | 267° |
| 2026-04-28 10:12 | 3.41195 | 103.99031 | 33833 ft | 486 kts | 267° |
| 2026-04-28 10:13 | 3.40865 | 103.92278 | 33830 ft | 486 kts | 267° |
| 2026-04-28 10:13 | 3.40571 | 103.85516 | 33830 ft | 486 kts | 268° |
| 2026-04-28 10:14 | 3.40305 | 103.78750 | 33825 ft | 487 kts | 268° |
| 2026-04-28 10:14 | 3.40036 | 103.71979 | 33822 ft | 487 kts | 268° |
| 2026-04-28 10:15 | 3.39757 | 103.65206 | 33820 ft | 487 kts | 267° |
| 2026-04-28 10:15 | 3.39473 | 103.58482 | 33819 ft | 487 kts | 267° |
| 2026-04-28 10:16 | 3.39186 | 103.51658 | 33822 ft | 487 kts | 267° |
| 2026-04-28 10:16 | 3.38902 | 103.44924 | 33817 ft | 487 kts | 267° |
| 2026-04-28 10:17 | 3.38628 | 103.38147 | 33815 ft | 488 kts | 268° |
| 2026-04-28 10:17 | 3.38390 | 103.31366 | 33815 ft | 488 kts | 268° |
| 2026-04-28 10:18 | 3.38161 | 103.24582 | 33815 ft | 488 kts | 268° |
| 2026-04-28 10:18 | 3.37925 | 103.17794 | 33811 ft | 488 kts | 268° |
| 2026-04-28 10:19 | 3.37683 | 103.11006 | 33810 ft | 488 kts | 268° |
| 2026-04-28 10:19 | 3.37434 | 103.04215 | 33811 ft | 488 kts | 268° |
| 2026-04-28 10:20 | 3.37185 | 102.97421 | 33810 ft | 488 kts | 268° |
| 2026-04-28 10:20 | 3.36938 | 102.90631 | 33802 ft | 489 kts | 268° |
| 2026-04-28 10:21 | 3.36698 | 102.83834 | 33806 ft | 489 kts | 268° |
| 2026-04-28 10:21 | 3.36454 | 102.77040 | 33801 ft | 489 kts | 268° |
| 2026-04-28 10:22 | 3.36202 | 102.70242 | 33796 ft | 488 kts | 268° |
| 2026-04-28 10:22 | 3.35949 | 102.63451 | 33797 ft | 488 kts | 268° |
| 2026-04-28 10:23 | 3.35775 | 102.56659 | 33794 ft | 488 kts | 269° |
| 2026-04-28 10:23 | 3.35718 | 102.49865 | 33790 ft | 488 kts | 269° |
| 2026-04-28 10:24 | 3.35675 | 102.43069 | 33793 ft | 488 kts | 269° |
| 2026-04-28 10:24 | 3.35592 | 102.36272 | 33787 ft | 488 kts | 269° |
| 2026-04-28 10:25 | 3.35495 | 102.29477 | 33791 ft | 489 kts | 269° |
| 2026-04-28 10:25 | 3.35403 | 102.22676 | 33790 ft | 489 kts | 269° |
| 2026-04-28 10:26 | 3.35311 | 102.15879 | 33791 ft | 489 kts | 269° |
| 2026-04-28 10:26 | 3.35215 | 102.09077 | 33792 ft | 489 kts | 269° |
| 2026-04-28 10:27 | 3.35081 | 102.02319 | 33796 ft | 489 kts | 268° |
| 2026-04-28 10:27 | 3.34731 | 101.95528 | 33796 ft | 489 kts | 266° |
| 2026-04-28 10:28 | 3.34297 | 101.88751 | 33793 ft | 489 kts | 266° |
| 2026-04-28 10:29 | 3.33736 | 101.78560 | 33785 ft | 489 kts | 267° |
| 2026-04-28 10:29 | 3.33395 | 101.71766 | 33775 ft | 489 kts | 267° |
| 2026-04-28 10:30 | 3.33220 | 101.68369 | 33769 ft | 489 kts | 266° |
| 2026-04-28 10:31 | 3.32649 | 101.52943 | 33768 ft | 489 kts | 269° |
| 2026-04-28 10:31 | 3.32940 | 101.48448 | 33760 ft | 488 kts | 280° |
| 2026-04-28 10:31 | 3.33751 | 101.45157 | 33767 ft | 488 kts | 289° |
| 2026-04-28 10:32 | 3.36718 | 101.39087 | 33770 ft | 486 kts | 301° |
| 2026-04-28 10:32 | 3.40197 | 101.33290 | 33774 ft | 486 kts | 301° |
| 2026-04-28 10:33 | 3.43703 | 101.27483 | 33766 ft | 486 kts | 302° |
| 2026-04-28 10:33 | 3.47196 | 101.21691 | 33777 ft | 486 kts | 301° |
| 2026-04-28 10:34 | 3.50665 | 101.15930 | 33484 ft | 474 kts | 301° |
| 2026-04-28 10:34 | 3.52346 | 101.13136 | 33227 ft | 463 kts | 301° |
| 2026-04-28 10:34 | 3.53985 | 101.10407 | 32983 ft | 453 kts | 301° |
| 2026-04-28 10:34 | 3.55594 | 101.07727 | 32727 ft | 447 kts | 301° |
| 2026-04-28 10:35 | 3.57276 | 101.05131 | 32482 ft | 443 kts | 308° |
| 2026-04-28 10:35 | 3.59335 | 101.02862 | 32238 ft | 439 kts | 319° |
| 2026-04-28 10:35 | 3.61743 | 101.00997 | 31999 ft | 436 kts | 329° |
| 2026-04-28 10:35 | 3.64412 | 100.99578 | 31759 ft | 434 kts | 337° |
| 2026-04-28 10:36 | 3.67159 | 100.98350 | 31481 ft | 430 kts | 337° |
| 2026-04-28 10:36 | 3.69880 | 100.97127 | 30990 ft | 428 kts | 336° |
| 2026-04-28 10:36 | 3.72590 | 100.95907 | 30486 ft | 426 kts | 336° |
| 2026-04-28 10:36 | 3.75288 | 100.94692 | 30010 ft | 425 kts | 337° |
| 2026-04-28 10:37 | 3.77979 | 100.93481 | 29443 ft | 423 kts | 337° |
| 2026-04-28 10:37 | 3.80650 | 100.92280 | 28975 ft | 419 kts | 337° |
| 2026-04-28 10:37 | 3.83294 | 100.91091 | 28504 ft | 415 kts | 337° |
| 2026-04-28 10:37 | 3.85914 | 100.89913 | 28043 ft | 410 kts | 337° |
| 2026-04-28 10:38 | 3.88508 | 100.88748 | 27594 ft | 407 kts | 337° |
| 2026-04-28 10:38 | 3.91075 | 100.87594 | 27148 ft | 403 kts | 337° |
| 2026-04-28 10:38 | 3.93619 | 100.86450 | 26705 ft | 400 kts | 337° |
| 2026-04-28 10:38 | 3.96146 | 100.85314 | 26266 ft | 396 kts | 337° |
| 2026-04-28 10:39 | 3.98651 | 100.84189 | 25840 ft | 393 kts | 337° |
| 2026-04-28 10:39 | 4.01170 | 100.83057 | 25388 ft | 407 kts | 337° |
| 2026-04-28 10:39 | 4.03844 | 100.81856 | 24899 ft | 435 kts | 337° |
| 2026-04-28 10:39 | 4.06684 | 100.80581 | 24360 ft | 459 kts | 337° |
| 2026-04-28 10:40 | 4.09630 | 100.79255 | 23796 ft | 466 kts | 336° |
| 2026-04-28 10:40 | 4.12584 | 100.77921 | 23192 ft | 465 kts | 336° |
| 2026-04-28 10:40 | 4.15526 | 100.76591 | 22580 ft | 462 kts | 336° |
| 2026-04-28 10:40 | 4.18438 | 100.75277 | 22007 ft | 458 kts | 337° |
| 2026-04-28 10:41 | 4.21348 | 100.73988 | 21437 ft | 454 kts | 337° |
| 2026-04-28 10:41 | 4.24236 | 100.72732 | 20885 ft | 451 kts | 338° |
| 2026-04-28 10:41 | 4.27106 | 100.71497 | 20335 ft | 447 kts | 338° |
| 2026-04-28 10:41 | 4.29951 | 100.70274 | 19785 ft | 443 kts | 338° |
| 2026-04-28 10:42 | 4.32771 | 100.69056 | 19253 ft | 440 kts | 338° |
| 2026-04-28 10:42 | 4.35565 | 100.67842 | 18723 ft | 436 kts | 337° |
| 2026-04-28 10:42 | 4.38343 | 100.66630 | 18193 ft | 433 kts | 337° |
| 2026-04-28 10:42 | 4.41093 | 100.65430 | 17626 ft | 430 kts | 337° |
| 2026-04-28 10:43 | 4.43825 | 100.64238 | 17110 ft | 427 kts | 337° |
| 2026-04-28 10:43 | 4.46535 | 100.63054 | 16612 ft | 423 kts | 337° |
| 2026-04-28 10:43 | 4.49223 | 100.61883 | 16111 ft | 420 kts | 337° |
| 2026-04-28 10:43 | 4.51892 | 100.60719 | 15621 ft | 417 kts | 337° |
| 2026-04-28 10:44 | 4.54563 | 100.59555 | 15127 ft | 425 kts | 337° |
| 2026-04-28 10:44 | 4.56377 | 100.58766 | 14797 ft | 431 kts | 337° |
| 2026-04-28 10:44 | 4.60065 | 100.57161 | 14109 ft | 431 kts | 337° |
| 2026-04-28 10:44 | 4.62808 | 100.55966 | 13599 ft | 429 kts | 337° |
| 2026-04-28 10:45 | 4.65533 | 100.54778 | 13048 ft | 426 kts | 337° |
| 2026-04-28 10:45 | 4.67331 | 100.53993 | 12709 ft | 423 kts | 337° |
| 2026-04-28 10:45 | 4.70807 | 100.52470 | 12048 ft | 419 kts | 337° |
| 2026-04-28 10:45 | 4.72606 | 100.51681 | 11693 ft | 417 kts | 337° |
| 2026-04-28 10:46 | 4.75254 | 100.50525 | 11174 ft | 413 kts | 338° |
| 2026-04-28 10:46 | 4.77882 | 100.49380 | 10818 ft | 411 kts | 338° |
| 2026-04-28 10:46 | 4.80484 | 100.48232 | 10436 ft | 404 kts | 335° |
| 2026-04-28 10:46 | 4.82732 | 100.46738 | 10279 ft | 375 kts | 317° |
| 2026-04-28 10:47 | 4.84357 | 100.44830 | 10143 ft | 345 kts | 308° |
| 2026-04-28 10:47 | 4.85764 | 100.42989 | 10030 ft | 320 kts | 308° |
| 2026-04-28 10:47 | 4.87078 | 100.41263 | 9736 ft | 305 kts | 308° |
| 2026-04-28 10:47 | 4.88352 | 100.39588 | 9185 ft | 300 kts | 308° |
| 2026-04-28 10:48 | 4.89610 | 100.37936 | 8605 ft | 296 kts | 308° |
| 2026-04-28 10:48 | 4.90863 | 100.36293 | 8137 ft | 296 kts | 308° |
| 2026-04-28 10:48 | 4.92110 | 100.34658 | 7795 ft | 294 kts | 308° |
| 2026-04-28 10:48 | 4.93279 | 100.33124 | 7460 ft | 292 kts | 308° |
| 2026-04-28 10:49 | 4.94738 | 100.31208 | 7045 ft | 290 kts | 308° |
| 2026-04-28 10:49 | 4.95959 | 100.29603 | 6674 ft | 289 kts | 308° |
| 2026-04-28 10:49 | 4.97174 | 100.28007 | 6324 ft | 287 kts | 308° |
| 2026-04-28 10:49 | 4.98382 | 100.26420 | 5953 ft | 285 kts | 308° |
| 2026-04-28 10:50 | 4.99580 | 100.24844 | 5584 ft | 283 kts | 308° |
| 2026-04-28 10:50 | 5.00383 | 100.23789 | 5332 ft | 281 kts | 308° |
| 2026-04-28 10:50 | 5.01566 | 100.22236 | 4963 ft | 279 kts | 308° |
| 2026-04-28 10:50 | 5.02796 | 100.20619 | 4591 ft | 275 kts | 308° |
| 2026-04-28 10:51 | 5.04033 | 100.19275 | 4451 ft | 251 kts | 322° |
| 2026-04-28 10:51 | 5.05472 | 100.18319 | 3947 ft | 249 kts | 334° |
| 2026-04-28 10:51 | 5.07011 | 100.17530 | 3675 ft | 246 kts | 334° |
| 2026-04-28 10:51 | 5.08500 | 100.16754 | 3525 ft | 237 kts | 333° |
| 2026-04-28 10:52 | 5.09927 | 100.16002 | 3399 ft | 227 kts | 333° |
| 2026-04-28 10:52 | 5.11299 | 100.15280 | 3312 ft | 218 kts | 333° |
| 2026-04-28 10:52 | 5.12632 | 100.14584 | 3212 ft | 215 kts | 335° |
| 2026-04-28 10:52 | 5.14058 | 100.14274 | 3117 ft | 208 kts | 6° |
| 2026-04-28 10:53 | 5.15380 | 100.14733 | 3030 ft | 199 kts | 36° |
| 2026-04-28 10:53 | 5.16406 | 100.15625 | 3006 ft | 193 kts | 41° |
| 2026-04-28 10:53 | 5.17400 | 100.16530 | 2795 ft | 191 kts | 41° |
| 2026-04-28 10:53 | 5.18385 | 100.17423 | 2559 ft | 191 kts | 41° |
| 2026-04-28 10:54 | 5.19364 | 100.18310 | 2319 ft | 188 kts | 41° |
| 2026-04-28 10:54 | 5.20325 | 100.19180 | 2079 ft | 184 kts | 41° |
| 2026-04-28 10:54 | 5.21251 | 100.20019 | 1859 ft | 175 kts | 41° |
| 2026-04-28 10:54 | 5.22141 | 100.20825 | 1640 ft | 172 kts | 41° |
| 2026-04-28 10:55 | 5.23026 | 100.21626 | 1416 ft | 170 kts | 40° |
| 2026-04-28 10:55 | 5.23875 | 100.22395 | 1188 ft | 158 kts | 41° |
| 2026-04-28 10:55 | 5.24672 | 100.23117 | 1000 ft | 152 kts | 40° |
| 2026-04-28 10:55 | 5.25452 | 100.23823 | 833 ft | 150 kts | 40° |
| 2026-04-28 10:56 | 5.25966 | 100.24288 | 723 ft | 149 kts | 41° |
| 2026-04-28 10:56 | 5.26558 | 100.24828 | 588 ft | 150 kts | 40° |
| 2026-04-28 10:56 | 5.27325 | 100.25529 | 397 ft | 149 kts | 41° |
| 2026-04-28 10:56 | 5.28105 | 100.26217 | 195 ft | 150 kts | 43° |
| 2026-04-28 10:57 | 5.28867 | 100.26912 | 48 ft | 147 kts | 41° |
| 2026-04-28 10:57 | 5.29557 | 100.27541 | 23 ft | 114 kts | 42° |
| 2026-04-28 10:57 | 5.30017 | 100.27959 | 28 ft | 64 kts | 42° |
| 2026-04-28 10:57 | 5.30139 | 100.28034 | 25 ft | 7 kts | 339° |
| 2026-04-28 10:58 | 5.30191 | 100.27987 | 24 ft | 15 kts | 310° |
| 2026-04-28 10:58 | 5.30236 | 100.27923 | 23 ft | 6 kts | 270° |
| 2026-04-28 10:58 | 5.30215 | 100.27892 | 24 ft | 5 kts | 226° |
| 2026-04-28 10:58 | 5.30190 | 100.27867 | 23 ft | 7 kts | 223° |
| 2026-04-28 10:59 | 5.30140 | 100.27819 | 23 ft | 13 kts | 225° |
| 2026-04-28 10:59 | 5.30071 | 100.27749 | 23 ft | 15 kts | 222° |
| 2026-04-28 10:59 | 5.29988 | 100.27674 | 23 ft | 17 kts | 223° |
| 2026-04-28 10:59 | 5.29897 | 100.27588 | 23 ft | 19 kts | 223° |
| 2026-04-28 11:00 | 5.29796 | 100.27496 | 23 ft | 20 kts | 222° |
| 2026-04-28 11:00 | 5.29709 | 100.27417 | 23 ft | 14 kts | 222° |
| 2026-04-28 11:00 | 5.29635 | 100.27349 | 23 ft | 15 kts | 222° |
| 2026-04-28 11:00 | 5.29553 | 100.27276 | 23 ft | 16 kts | 222° |
| 2026-04-28 11:01 | 5.29482 | 100.27211 | 23 ft | 14 kts | 222° |
| 2026-04-28 11:01 | 5.29407 | 100.27144 | 23 ft | 15 kts | 222° |
| 2026-04-28 11:01 | 5.29341 | 100.27067 | 23 ft | 14 kts | 259° |
| 2026-04-28 11:01 | 5.29342 | 100.27051 | 23 ft | 1 kts | 278° |
| 2026-04-28 11:02 | 5.29350 | 100.27028 | 24 ft | 6 kts | 312° |
| 2026-04-28 11:02 | 5.29389 | 100.26987 | 23 ft | 11 kts | 311° |
| 2026-04-28 11:02 | 5.29393 | 100.26913 | 23 ft | 12 kts | 231° |
| 2026-04-28 11:02 | 5.29342 | 100.26865 | 23 ft | 11 kts | 222° |
| 2026-04-28 11:03 | 5.29289 | 100.26817 | 23 ft | 8 kts | 232° |
| 2026-04-28 11:03 | 5.29313 | 100.26769 | 24 ft | 5 kts | 312° |
| 2026-04-28 11:03 | 5.29325 | 100.26756 | 23 ft | 0 kts | 312° |
| 2026-04-28 11:03 | 5.29331 | 100.26749 | 23 ft | 1 kts | 312° |
| 2026-04-28 11:04 | 5.29332 | 100.26747 | 23 ft | 0 kts | 311° |